• Join FlightAware (Why Join?)
  • Login
  • US Flag 
12:10AM EDT


 

Airport Tracker/Info


-or-


 

Live Flight TrackerFlight Track Log ✈ GJS3707 ✈ 08-Jun-2013 ✈ KBOI - KORD

Flight Track Log - Related Links

Times and Time Zones

All times are in EDT time to prevent confusion due to time zone crossing. See the GJS3707 flight status page for this flight to view local times or setup timezone preferences in your user account.

Time Position Orientation Groundspeed Altitude Reporting Facility
EDT Latitude Longitude Course Direction KTS MPH feet Rate Location/Type
02:54PM 43.5931 -116.3167 290° West 192 221 5,400  Level Salt Lake Center
02:55PM 43.6461 -116.2847 24° Northeast 240 276 7,400 1,980 Climbing Salt Lake Center
02:56PM 43.6325 -115.7226 79° East  Level FlightAware Approximate
02:56PM 43.6758 -116.1783 69° East 263 303 9,500  Level Salt Lake Center
02:57PM 43.6584 -115.5544 78° East  Level FlightAware Approximate
02:57PM 43.7083 -116.0792 66° East 293 337 11,100  Level Salt Lake Center
02:58PM 43.6772 -115.3844 83° East  Level FlightAware Approximate
02:58PM 43.7500 -115.9461 67° East 335 386 12,700  Level Salt Lake Center
02:59PM 43.7017 -115.2181 81° East  Level FlightAware Approximate
03:00PM 43.7861 -115.8222 68° East 359 413 14,000  Level Salt Lake Center
03:01PM 43.8261 -115.6675 70° East 382 440 15,700 1,560 Climbing Salt Lake Center
03:02PM 43.8389 -115.5214 83° East 401 461 17,300 1,500 Climbing Salt Lake Center
03:03PM 43.8508 -115.3494 84° East 403 464 18,800 1,380 Climbing Salt Lake Center
03:04PM 43.8619 -115.1958 84° East 415 478 20,200 1,320 Climbing Salt Lake Center
03:05PM 43.8733 -115.0400 84° East 424 488 21,600 1,320 Climbing Salt Lake Center
03:06PM 43.8850 -114.8578 85° East 425 489 23,000 1,140 Climbing Salt Lake Center
03:07PM 43.8958 -114.6958 85° East 440 506 24,000 1,020 Climbing Salt Lake Center
03:08PM 43.9083 -114.5003 85° East 458 527 25,100 960 Climbing Salt Lake Center
03:09PM 43.9197 -114.3297 85° East 464 534 26,100 1,020 Climbing Salt Lake Center
03:10PM 43.9322 -114.1275 85° East 472 543 27,200 1,020 Climbing Salt Lake Center
03:11PM 43.9419 -113.9519 86° East 477 549 28,200 960 Climbing Salt Lake Center
03:12PM 43.9522 -113.7736 85° East 475 547 29,200 960 Climbing Salt Lake Center
03:13PM 43.9611 -113.5675 87° East 480 552 30,200 780 Climbing Salt Lake Center
03:14PM 43.9672 -113.3883 87° East 485 558 30,900 720 Climbing Salt Lake Center
03:15PM 43.9764 -113.1775 86° East 490 564 31,800 780 Climbing Salt Lake Center
03:16PM 43.9842 -112.9972 87° East 490 564 32,600 780 Climbing Salt Lake Center
03:17PM 43.9922 -112.8178 86° East 487 560 33,400 720 Climbing Salt Lake Center
03:18PM 43.9997 -112.6106 87° East 483 556 34,200 720 Climbing Salt Lake Center
03:19PM 44.0061 -112.4328 87° East 482 555 34,900 720 Climbing Salt Lake Center
03:20PM 44.0144 -112.2264 87° East 482 555 35,700 720 Climbing Salt Lake Center
03:21PM 44.0200 -112.0497 87° East 480 552 36,400 720 Climbing Salt Lake Center
03:22PM 44.0267 -111.8456 87° East 478 550 37,200 600 Climbing Salt Lake Center
03:23PM 44.0314 -111.6728 88° East 472 543 37,700 480 Climbing Salt Lake Center
03:24PM 44.0369 -111.4728 88° East 468 539 38,200 420 Climbing Salt Lake Center
03:25PM 44.0417 -111.3008 88° East 468 539 38,600 300 Climbing Salt Lake Center
03:26PM 44.0469 -111.1017 88° East 465 535 38,900 180 Climbing Salt Lake Center
03:27PM 44.0508 -110.9308 88° East 464 534 39,000  Climbing Salt Lake Center
03:28PM 44.0542 -110.7569 88° East 471 542 39,000  Level Salt Lake Center
03:29PM 44.0603 -110.5500 88° East 478 550 39,000  Level Salt Lake Center
03:30PM 44.0628 -110.3719 89° East 482 555 39,000  Level Salt Lake Center
03:31PM 44.0669 -110.1642 88° East 483 556 39,000  Level Salt Lake Center
03:32PM 44.0692 -109.9872 89° East 480 552 39,000  Level Salt Lake Center
03:33PM 44.0722 -109.7853 89° East 473 544 39,000  Level Salt Lake Center
03:34PM 44.0747 -109.6122 89° East 469 540 39,000  Level Salt Lake Center
03:35PM 44.0761 -109.4133 89° East 464 534 39,000  Level Salt Lake Center
03:37PM 44.0778 -109.2419 89° East 463 533 39,000  Level Salt Lake Center
03:38PM 44.0792 -109.0694 89° East 467 537 39,000  Level Salt Lake Center
03:39PM 44.0808 -108.8639 89° East 475 547 39,000  Level Salt Lake Center
03:40PM 44.0814 -108.6881 90° East 477 549 39,000  Level Salt Lake Center
03:41PM 44.0811 -108.4747 90° East 492 566 39,000  Level Salt Lake Center
03:42PM 44.0803 -108.2931 90° East 493 567 39,000  Level Salt Lake Center
03:43PM 44.0792 -108.0833 90° East 489 563 39,000  Level Salt Lake Center
03:44PM 44.0789 -107.9044 90° East 487 560 39,000  Level Salt Lake Center
03:45PM 44.0783 -107.7244 90° East 488 562 39,000  Level Salt Lake Center
03:46PM 44.0781 -107.5136 90° East 491 565 39,000  Level Salt Lake Center
03:47PM 44.0761 -107.3311 91° East 494 568 39,000  Level Salt Lake Center
03:48PM 44.0753 -107.1189 90° East 496 571 39,000  Level Salt Lake Center
03:48PM 44.0739 -107.0281 91° East 493 567 39,000  Level Denver Center
03:49PM 44.0719 -106.8372 91° East 498 573 39,000  Level Denver Center
03:50PM 44.0697 -106.7228 92° East 497 572 39,000  Level Salt Lake Center
03:50PM 44.0697 -106.6239 90° East 495 570 39,000  Level Denver Center
03:51PM 44.0664 -106.4428 91° East 491 565 39,000  Level Denver Center
03:52PM 44.0644 -106.3289 91° East 495 570 39,000  Level Salt Lake Center
03:53PM 44.0636 -106.1350 90° East 499 574 39,000  Level Salt Lake Center
03:53PM 44.0608 -106.0453 92° East 495 570 39,000  Level Denver Center
03:54PM 44.0578 -105.8622 91° East 494 568 39,000  Level Denver Center
03:55PM 44.0528 -105.6519 92° East 489 563 39,000  Level Denver Center
03:56PM 44.0478 -105.4736 92° East 485 558 39,000  Level Denver Center
03:58PM 44.0439 -105.2931 92° East 486 559 39,000  Level Denver Center
03:59PM 44.0375 -105.0836 92° East 485 558 39,000  Level Denver Center
04:00PM 44.0328 -104.9019 92° East 489 563 39,000  Level Denver Center
04:01PM 44.0269 -104.7192 92° East 492 566 39,000  Level Denver Center
04:02PM 44.0206 -104.5069 92° East 492 566 39,000  Level Denver Center
04:03PM 44.0136 -104.3250 93° East 492 566 39,000  Level Denver Center
04:04PM 44.0061 -104.1108 93° East 497 572 39,000  Level Denver Center
04:05PM 43.9992 -103.9267 93° East 500 575 39,000  Level Denver Center
04:06PM 43.9922 -103.7436 93° East 497 572 39,000  Level Denver Center
04:07PM 43.9836 -103.5306 93° East 495 570 39,000  Level Denver Center
04:08PM 43.9764 -103.3481 93° East 495 570 39,000  Level Denver Center
04:09PM 43.9675 -103.1392 93° East 489 563 39,000  Level Denver Center
04:10PM 43.9572 -102.9289 94° East 489 563 39,000  Level Denver Center
04:11PM 43.9489 -102.7428 93° East 489 563 39,000  Level Denver Center
04:12PM 43.9389 -102.5569 94° East 487 560 39,000  Level Denver Center
04:13PM 43.9247 -102.3331 95° East 487 560 39,000  Level Denver Center
04:14PM 43.9128 -102.1450 95° East 488 562 39,000  Level Denver Center
04:15PM 43.9025 -101.9589 94° East 487 560 39,000  Level Denver Center
04:16PM 43.8931 -101.7769 94° East 481 554 39,000  Level Denver Center
04:17PM 43.8833 -101.5622 94° East 472 543 39,000  Level Denver Center
04:18PM 43.8725 -101.3781 95° East 477 549 39,000  Level Denver Center
04:19PM 43.8619 -101.1931 94° East 481 554 39,000  Level Denver Center
04:20PM 43.8467 -100.9722 95° East 482 555 39,000  Level Denver Center
04:21PM 43.8347 -100.7886 95° East 483 556 39,000  Level Denver Center
04:23PM 43.8231 -100.6053 95° East 481 554 39,000  Level Denver Center
04:24PM 43.8108 -100.4250 95° East 476 548 39,000  Level Denver Center
04:25PM 43.7975 -100.2411 96° East 478 550 39,000  Level Denver Center
04:26PM 43.7847 -100.0561 95° East 483 556 39,000  Level Denver Center
04:27PM 43.7661 -99.8017 96° East 482 555 39,000  Level Minneapolis Center
04:28PM 43.7514 -99.6181 96° East 483 556 39,000  Level Minneapolis Center
04:29PM 43.7372 -99.4339 96° East 483 556 39,000  Level Minneapolis Center
04:30PM 43.7231 -99.2506 96° East 483 556 39,000  Level Minneapolis Center
04:31PM 43.7083 -99.0653 96° East 484 557 39,000  Level Minneapolis Center
04:32PM 43.6936 -98.8822 96° East 483 556 39,000  Level Minneapolis Center
04:33PM 43.6789 -98.6964 96° East 486 559 39,000  Level Minneapolis Center
04:34PM 43.6611 -98.4864 97° East 482 555 39,000  Level Minneapolis Center
04:35PM 43.6442 -98.3033 97° East 483 556 39,000  Level Minneapolis Center
04:36PM 43.6289 -98.1200 97° East 481 554 39,000  Level Minneapolis Center
04:37PM 43.6114 -97.9372 97° East 483 556 39,000  Level Minneapolis Center
04:38PM 43.5950 -97.7558 97° East 479 551 39,000  Level Minneapolis Center
04:39PM 43.5747 -97.5358 97° East 483 556 39,000  Level Minneapolis Center
04:40PM 43.5569 -97.3553 98° East 480 552 39,000  Level Minneapolis Center
04:41PM 43.5389 -97.1711 98° East 485 558 39,000  Level Minneapolis Center
04:42PM 43.5211 -96.9894 98° East 483 556 39,000  Level Minneapolis Center
04:43PM 43.5028 -96.8058 98° East 486 559 39,000  Level Minneapolis Center
04:44PM 43.4797 -96.5861 98° East 486 559 39,000  Level Minneapolis Center
04:45PM 43.4608 -96.4031 98° East 487 560 39,000  Level Minneapolis Center
04:46PM 43.4419 -96.2200 98° East 488 562 39,000  Level Minneapolis Center
04:47PM 43.4222 -96.0358 98° East 490 564 39,000  Level Minneapolis Center
04:49PM 43.4019 -95.8536 99° East 488 562 39,000  Level Minneapolis Center
04:50PM 43.3808 -95.6708 99° East 487 560 39,000  Level Minneapolis Center
04:51PM 43.3569 -95.4525 98° East 484 557 39,000  Level Minneapolis Center
04:52PM 43.3364 -95.2714 99° East 483 556 39,000  Level Minneapolis Center
04:53PM 43.3153 -95.0914 99° East 481 554 39,000  Level Minneapolis Center
04:54PM 43.2939 -94.9119 99° East 479 551 39,000  Level Minneapolis Center
04:55PM 43.2725 -94.7344 99° East 476 548 39,000  Level Minneapolis Center
04:56PM 43.2506 -94.5556 100° East 477 549 39,000  Level Minneapolis Center
04:57PM 43.2250 -94.3425 99° East 474 545 39,000  Level Minneapolis Center
04:58PM 43.2028 -94.1669 100° East 478 550 39,000  Level Minneapolis Center
04:59PM 43.1803 -93.9892 100° East 479 551 39,000 -300 Level Minneapolis Center
05:00PM 43.1517 -93.7764 100° East 478 550 38,400 -780 Descending Minneapolis Center
05:01PM 43.1289 -93.5964 100° East 483 556 37,400 -1,020 Descending Minneapolis Center
05:02PM 43.1056 -93.4144 100° East 488 562 36,400 -1,020 Descending Minneapolis Center
05:03PM 43.0867 -93.2333 98° East 487 560 35,400 -720 Descending Minneapolis Center
05:04PM 43.0758 -93.0478 95° East 492 566 35,000 -420 Descending Minneapolis Center
05:05PM 43.0636 -92.8628 95° East 493 567 34,600 -780 Descending Minneapolis Center
05:06PM 43.0486 -92.6408 95° East 492 566 33,400 -1,020 Descending Minneapolis Center
05:07PM 43.0356 -92.4922 97° East 496 571 32,600 -960 Descending Chicago Center
05:08PM 43.0222 -92.3053 96° East 498 573 31,600 -840 Descending Chicago Center
05:09PM 43.0064 -92.0811 95° East 498 573 31,000 -300 Descending Chicago Center
05:10PM 42.9919 -91.8906 96° East 503 579 31,000  Level Chicago Center
05:11PM 42.9789 -91.6972 95° East 508 585 31,000  Level Chicago Center
05:12PM 42.9639 -91.5011 96° East 512 589 31,000  Level Chicago Center
05:13PM 42.9472 -91.3058 97° East 514 592 31,000  Level Chicago Center
05:14PM 42.9306 -91.1114 97° East 517 595 31,000 -120 Level Chicago Center
05:15PM 42.9158 -90.9189 96° East 514 592 30,800 -660 Descending Chicago Center
05:16PM 42.8986 -90.7294 97° East 508 585 29,700 -1,260 Descending Chicago Center
05:17PM 42.8778 -90.5050 97° East 504 580 28,300 -1,320 Descending Chicago Center
05:18PM 42.8625 -90.3225 96° East 492 566 27,100 -1,200 Descending Chicago Center
05:19PM 42.8442 -90.1425 98° East 485 558 25,900 -1,200 Descending Chicago Center
05:20PM 42.8072 -89.9733 107° East 474 545 24,700 -1,740 Descending Chicago Center
05:21PM 42.7561 -89.7944 111° Southeast 452 520 22,400 -1,980 Descending Chicago Center
05:22PM 42.7125 -89.6419 111° Southeast 434 499 20,700 -1,620 Descending Chicago Center
05:23PM 42.6700 -89.4947 111° Southeast 422 486 19,100 -1,560 Descending Chicago Center
05:25PM 42.6392 -89.3517 106° East 398 458 17,600 -1,440 Descending Chicago Center
05:26PM 42.6761 -89.2231 69° East 366 421 16,200 -1,380 Descending Chicago Center
05:27PM 42.6436 -89.1003 110° East 334 384 14,800 -1,440 Descending Chicago Center
05:28PM 42.5631 -89.0439 153° Southeast 324 373 13,300 -1,260 Descending Chicago Center
05:29PM 42.5244 -88.9328 115° Southeast 319 367 12,300 -600 Descending Chicago Center
05:30PM 42.4869 -88.8222 115° Southeast 320 368 12,100 -600 Descending Chicago Center
05:31PM 42.4494 -88.7161 116° Southeast 314 361 11,100 -1,080 Descending Chicago Center
05:32PM 42.4133 -88.6131 115° Southeast 307 353 10,000 -1,020 Descending Chicago Center
05:33PM 42.3611 -88.5067 124° Southeast 291 335 9,100 -900 Descending Chicago Center
05:34PM 42.3181 -88.4256 126° Southeast 282 325 8,200 -1,260 Descending Chicago Center
05:35PM 42.2731 -88.3414 126° Southeast 279 321 6,600 -1,620 Descending Chicago Center
05:36PM 42.2292 -88.2561 125° Southeast 279 321 5,000 -1,020 Descending Chicago Center
05:37PM 42.1875 -88.1789 126° Southeast 266 306 4,600 -540 Descending Chicago Center
05:38PM 42.1497 -88.1133 128° Southeast 235 270 4,000 -600 Descending Chicago Center